Flight Track Log - Related Links

Times and Time Zones

All times are in EDT time to prevent confusion due to time zone crossing. See the N509QS flight status page for this flight to view local times or setup timezone preferences in your user account.


Time Position Orientation Groundspeed Altitude Reporting Facility
EDT Latitude Longitude Course Direction KTS MPH feet Rate Location/Type
Mon 12:58:39 AM 47.5461 -122.3181 329° Northwest 190 219 1,300  Level Seattle Center
Mon 12:58:58 AM 47.5589 -122.3294 329° Northwest 194 223 2,100 2,074 Climbing Seattle Center
Mon 01:00:00 AM 47.6031 -122.3897 317° Northwest 238 274 4,100 2,016 Climbing Seattle Center
Mon 01:01:00 AM 47.5442 -122.4442 212° Southwest 275 316 6,200 2,033 Climbing Seattle Center
Mon 01:02:01 AM 47.4669 -122.4428 179° South 281 323 8,200 1,983 Climbing Seattle Center
Mon 01:03:01 AM 47.3897 -122.4431 180° South 282 325 10,200 2,033 Climbing Seattle Center
Mon 01:04:02 AM 47.3069 -122.3964 159° South 331 381 12,300 2,557 Climbing Seattle Center
Mon 01:05:03 AM 47.2119 -122.3386 158° South 367 422 15,400 2,727 Climbing Seattle Center
Mon 01:06:03 AM 47.1086 -122.2778 158° South 400 460 17,800 2,727 Climbing Seattle Center
Mon 01:07:04 AM 47.0039 -122.2175 159° South 418 481 20,900 2,678 Climbing Seattle Center
Mon 01:08:04 AM 46.9219 -122.0933 134° Southeast 437 503 23,200 2,231 Climbing Seattle Center
Mon 01:09:05 AM 46.8469 -121.9469 127° Southeast 455 524 25,400 2,132 Climbing Seattle Center
Mon 01:10:05 AM 46.7539 -121.8078 134° Southeast 486 559 27,500 1,983 Climbing Seattle Center
Mon 01:11:06 AM 46.6567 -121.6689 136° Southeast 495 570 29,400 1,686 Climbing Seattle Center
Mon 01:12:06 AM 46.5522 -121.5081 133° Southeast 511 588 30,900 1,339 Climbing Seattle Center
Mon 01:13:07 AM 46.4611 -121.3303 127° Southeast 538 619 32,100 1,339 Climbing Seattle Center
Mon 01:14:07 AM 46.3672 -121.1486 127° Southeast 559 643 33,600 1,785 Climbing Seattle Center
Mon 01:15:08 AM 46.2719 -120.9647 127° Southeast 568 654 35,700 2,678 Climbing Seattle Center
Mon 01:16:08 AM 46.1794 -120.7864 127° Southeast 560 644 39,000 2,628 Climbing Seattle Center
Mon 01:17:09 AM 46.0931 -120.6253 128° Southeast 516 594 41,000 984 Climbing Seattle Center
Mon 01:18:10 AM 46.0075 -120.4639 127° Southeast 508 585 41,000  Level Seattle Center
Mon 01:19:10 AM 45.9208 -120.3006 127° Southeast 514 592 41,000  Level Seattle Center
Mon 01:20:11 AM 45.8317 -120.1350 128° Southeast 522 601 41,000  Level Seattle Center
Mon 01:21:11 AM 45.7247 -119.9386 128° Southeast 519 597 41,000  Level Seattle Center
Mon 01:22:12 AM 45.6353 -119.7736 128° Southeast 522 601 41,000  Level Seattle Center
Mon 01:23:12 AM 45.5431 -119.6061 128° Southeast 530 610 41,000  Level Seattle Center
Mon 01:24:13 AM 45.4511 -119.4383 128° Southeast 534 615 41,000  Level Seattle Center
Mon 01:25:14 AM 45.3567 -119.2683 128° Southeast 541 623 41,000  Level Seattle Center
Mon 01:26:14 AM 45.2642 -119.1025 128° Southeast 536 617 41,000  Level Seattle Center
Mon 01:27:15 AM 45.1717 -118.9378 129° Southeast 534 615 41,000  Level Seattle Center
Mon 01:28:15 AM 45.0786 -118.7719 128° Southeast 534 615 41,000  Level Seattle Center
Mon 01:29:16 AM 44.9861 -118.6114 129° Southeast 529 609 41,000  Level Seattle Center
Mon 01:30:16 AM 44.9031 -118.4439 125° Southeast 523 602 41,000 100 Level Seattle Center
Mon 01:31:16 AM 44.8425 -118.2586 115° Southeast 519 597 41,200 347 Climbing Salt Lake Center
Mon 01:32:17 AM 44.7811 -118.0747 115° Southeast 526 605 41,700 492 Climbing Seattle Center
Mon 01:33:18 AM 44.7231 -117.9017 115° Southeast 516 594 42,200 496 Climbing Seattle Center
Mon 01:34:18 AM 44.6547 -117.7019 116° Southeast 510 587 42,700 496 Climbing Seattle Center
Mon 01:35:19 AM 44.5953 -117.5264 115° Southeast 518 596 43,200 496 Climbing Seattle Center
Mon 01:36:19 AM 44.5339 -117.3506 116° Southeast 523 602 43,700 496 Climbing Seattle Center
Mon 01:37:20 AM 44.4633 -117.1458 116° Southeast 526 605 44,200 492 Climbing Salt Lake Center
Mon 01:38:21 AM 44.4028 -116.9733 116° Southeast 519 597 44,700 393 Climbing Salt Lake Center
Mon 01:39:22 AM 44.3422 -116.8006 116° Southeast 518 596 45,000 149 Climbing Salt Lake Center
Mon 01:40:22 AM 44.2706 -116.6000 116° Southeast 521 600 45,000  Level Salt Lake Center
Mon 01:42:24 AM 44.1381 -116.2283 116° Southeast 524 603 45,000  Level Salt Lake Center
Mon 01:43:24 AM 44.0764 -116.0578 117° Southeast 523 602 45,000  Level Salt Lake Center
Mon 01:44:25 AM 44.0158 -115.8892 116° Southeast 515 593 45,000  Level Salt Lake Center
Mon 01:45:25 AM 43.9431 -115.6892 117° Southeast 521 600 45,000  Level Salt Lake Center
Mon 01:47:27 AM 43.8186 -115.3503 117° Southeast 516 594 45,000  Level Salt Lake Center
Mon 01:48:27 AM 43.7447 -115.1539 117° Southeast 516 594 45,000  Level Salt Lake Center
Mon 01:49:28 AM 43.6819 -114.9861 117° Southeast 515 593 45,000  Level Salt Lake Center
Mon 01:50:28 AM 43.6181 -114.8175 118° Southeast 518 596 45,000  Level Salt Lake Center
Mon 01:51:29 AM 43.5436 -114.6214 118° Southeast 518 596 45,000  Level Salt Lake Center
Mon 01:52:30 AM 43.4794 -114.4525 118° Southeast 520 598 45,000  Level Salt Lake Center
Mon 01:53:30 AM 43.4147 -114.2828 118° Southeast 523 602 45,000  Level Salt Lake Center
Mon 01:54:31 AM 43.3383 -114.0856 118° Southeast 524 603 45,000  Level Salt Lake Center
Mon 01:55:32 AM 43.2736 -113.9156 118° Southeast 525 604 45,000  Level Salt Lake Center
Mon 01:56:32 AM 43.2047 -113.7486 119° Southeast 528 608 45,000  Level Salt Lake Center
Mon 01:57:33 AM 43.1283 -113.5528 118° Southeast 525 604 45,000  Level Salt Lake Center
Mon 01:58:33 AM 43.0608 -113.3853 119° Southeast 526 605 45,000  Level Salt Lake Center
Mon 01:59:34 AM 42.9956 -113.2189 118° Southeast 522 601 45,000  Level Salt Lake Center
Mon 02:00:34 AM 42.9172 -113.0247 119° Southeast 524 603 45,000  Level Salt Lake Center
Mon 02:01:35 AM 42.8508 -112.8592 119° Southeast 523 602 45,000  Level Salt Lake Center
Mon 02:02:35 AM 42.7814 -112.6917 119° Southeast 528 608 45,000  Level Salt Lake Center
Mon 02:03:36 AM 42.7133 -112.5256 119° Southeast 528 608 45,000  Level Salt Lake Center
Mon 02:04:36 AM 42.6325 -112.3317 119° Southeast 526 605 45,000  Level Salt Lake Center
Mon 02:05:37 AM 42.5614 -112.1572 119° Southeast 527 606 45,000  Level Salt Lake Center
Mon 02:06:38 AM 42.4892 -111.9842 119° Southeast 528 608 45,000  Level Salt Lake Center
Mon 02:07:38 AM 42.4161 -111.8131 120° Southeast 527 606 45,000  Level Salt Lake Center
Mon 02:08:39 AM 42.3439 -111.6397 119° Southeast 527 606 45,000  Level Salt Lake Center
Mon 02:09:39 AM 42.2708 -111.4678 120° Southeast 528 608 45,000  Level Salt Lake Center
Mon 02:10:40 AM 42.1981 -111.2981 120° Southeast 524 603 45,000  Level Salt Lake Center
Mon 02:11:40 AM 42.1244 -111.1289 120° Southeast 523 602 45,000  Level Salt Lake Center
Mon 02:12:41 AM 42.0511 -110.9581 120° Southeast 526 605 45,000  Level Salt Lake Center
Mon 02:13:41 AM 41.9764 -110.7853 120° Southeast 523 602 45,000  Level Salt Lake Center
Mon 02:14:42 AM 41.9050 -110.6225 120° Southeast 528 608 45,000  Level Salt Lake Center
Mon 02:15:42 AM 41.8236 -110.4375 121° Southeast 518 596 45,000  Level Salt Lake Center
Mon 02:16:43 AM 41.7531 -110.2764 120° Southeast 523 602 45,000  Level Salt Lake Center
Mon 02:17:43 AM 41.6822 -110.1175 121° Southeast 521 600 45,000  Level Salt Lake Center
Mon 02:18:44 AM 41.5989 -109.9322 121° Southeast 522 601 45,000  Level Salt Lake Center
Mon 02:19:44 AM 41.5283 -109.7739 121° Southeast 521 600 45,000  Level Salt Lake Center
Mon 02:20:45 AM 41.4572 -109.6167 121° Southeast 520 598 45,000  Level Salt Lake Center
Mon 02:21:45 AM 41.3739 -109.4339 121° Southeast 520 598 45,000  Level Salt Lake Center
Mon 02:22:46 AM 41.3022 -109.2786 122° Southeast 523 602 45,000  Level Salt Lake Center
Mon 02:23:46 AM 41.2317 -109.1231 121° Southeast 521 600 45,000  Level Salt Lake Center
Mon 02:24:47 AM 41.1497 -108.9431 121° Southeast 517 595 45,000  Level Salt Lake Center
Mon 02:25:47 AM 41.0783 -108.7892 122° Southeast 516 594 45,000  Level Salt Lake Center
Mon 02:26:48 AM 41.0058 -108.6361 122° Southeast 515 593 45,000  Level Salt Lake Center
Mon 02:27:48 AM 40.9222 -108.4564 122° Southeast 515 593 45,000  Level Salt Lake Center
Mon 02:28:49 AM 40.8489 -108.3050 123° Southeast 513 590 45,000  Level Salt Lake Center
Mon 02:29:04 AM 40.8253 -108.2508 120° Southeast 514 592 45,000  Level Denver Center
Mon 02:30:04 AM 40.7658 -108.1217 121° Southeast 515 593 45,000  Level Denver Center
Mon 02:31:04 AM 40.6783 -107.9408 122° Southeast 515 593 45,000  Level Denver Center
Mon 02:32:04 AM 40.6042 -107.7858 122° Southeast 520 598 45,000  Level Denver Center
Mon 02:33:05 AM 40.5183 -107.6072 122° Southeast 516 594 45,000  Level Denver Center
Mon 02:34:05 AM 40.4442 -107.4536 122° Southeast 518 596 45,000  Level Denver Center
Mon 02:35:05 AM 40.3692 -107.3003 123° Southeast 520 598 45,000  Level Denver Center
Mon 02:36:05 AM 40.2947 -107.1489 123° Southeast 517 595 45,000  Level Denver Center
Mon 02:37:06 AM 40.2075 -106.9725 123° Southeast 516 594 45,000  Level Denver Center
Mon 02:38:06 AM 40.1339 -106.8219 123° Southeast 514 592 45,000  Level Denver Center
Mon 02:39:06 AM 40.0586 -106.6722 123° Southeast 515 593 45,000  Level Denver Center
Mon 02:40:06 AM 39.9703 -106.4956 123° Southeast 519 597 45,000  Level Denver Center
Mon 02:41:07 AM 39.8997 -106.3539 123° Southeast 517 595 45,000  Level Denver Center
Mon 02:42:07 AM 39.8214 -106.1981 123° Southeast 513 590 45,000  Level Denver Center
Mon 02:43:07 AM 39.7414 -106.0417 124° Southeast 516 594 45,000  Level Denver Center
Mon 02:44:07 AM 39.6631 -105.8869 123° Southeast 510 587 45,000  Level Denver Center
Mon 02:45:07 AM 39.5806 -105.7278 124° Southeast 516 594 45,000  Level Denver Center
Mon 02:46:08 AM 39.5036 -105.5756 123° Southeast 511 588 45,000  Level Denver Center
Mon 02:47:08 AM 39.4233 -105.4222 124° Southeast 515 593 45,000  Level Denver Center
Mon 02:48:08 AM 39.3428 -105.2678 124° Southeast 519 597 45,000  Level Denver Center
Mon 02:49:08 AM 39.2625 -105.1153 124° Southeast 516 594 45,000  Level Denver Center
Mon 02:50:09 AM 39.1814 -104.9622 124° Southeast 521 600 45,000  Level Denver Center
Mon 02:51:09 AM 39.1036 -104.8156 124° Southeast 513 590 45,000  Level Denver Center
Mon 02:52:09 AM 39.0136 -104.6433 124° Southeast 518 596 45,000  Level Denver Center
Mon 02:53:09 AM 38.9350 -104.4958 124° Southeast 523 602 45,000  Level Denver Center
Mon 02:54:09 AM 38.8583 -104.3517 124° Southeast 513 590 45,000  Level Denver Center
Mon 02:55:10 AM 38.7803 -104.2033 124° Southeast 518 596 45,000  Level Denver Center
Mon 02:56:10 AM 38.6886 -104.0375 125° Southeast 511 588 45,000  Level Denver Center
Mon 02:57:10 AM 38.6103 -103.8928 125° Southeast 515 593 45,000  Level Denver Center
Mon 02:58:10 AM 38.5322 -103.7486 125° Southeast 515 593 45,000  Level Denver Center
Mon 02:59:10 AM 38.4547 -103.6061 125° Southeast 509 586 45,000  Level Denver Center
Mon 03:00:11 AM 38.3639 -103.4411 125° Southeast 506 582 45,000  Level Denver Center
Mon 03:01:11 AM 38.2861 -103.3014 125° Southeast 504 580 45,000  Level Denver Center
Mon 03:02:11 AM 38.2078 -103.1589 125° Southeast 508 585 45,000  Level Denver Center
Mon 03:03:11 AM 38.1264 -103.0156 126° Southeast 509 586 45,000  Level Denver Center
Mon 03:04:12 AM 38.0353 -102.8511 125° Southeast 510 587 45,000  Level Denver Center
Mon 03:05:12 AM 37.9567 -102.7131 126° Southeast 510 587 45,000  Level Denver Center
Mon 03:06:12 AM 37.8792 -102.5761 126° Southeast 504 580 45,000  Level Denver Center
Mon 03:07:12 AM 37.8017 -102.4375 125° Southeast 501 577 45,000  Level Denver Center
Mon 03:08:12 AM 37.7111 -102.2792 126° Southeast 499 574 45,000  Level Denver Center
Mon 03:09:13 AM 37.6333 -102.1422 126° Southeast 501 577 45,000  Level Denver Center
Mon 03:10:13 AM 37.5547 -102.0064 126° Southeast 501 577 45,000  Level Denver Center
Mon 03:11:13 AM 37.4628 -101.8469 126° Southeast 504 580 45,000  Level Denver Center
Mon 03:12:13 AM 37.3861 -101.7150 126° Southeast 495 570 45,000  Level Denver Center
Mon 03:13:23 AM 37.2964 -101.5611 126° Southeast 489 563 45,000  Level Kansas City Center
Mon 03:14:23 AM 37.2189 -101.4297 127° Southeast 490 564 45,000  Level Kansas City Center
Mon 03:15:23 AM 37.1283 -101.2747 126° Southeast 494 568 45,000  Level Kansas City Center
Mon 03:16:23 AM 37.0489 -101.1411 127° Southeast 500 575 45,000  Level Kansas City Center
Mon 03:17:23 AM 36.9711 -101.0081 126° Southeast 498 573 45,000  Level Kansas City Center
Mon 03:18:24 AM 36.8797 -100.8558 127° Southeast 495 570 45,000  Level Kansas City Center
Mon 03:19:24 AM 36.8008 -100.7242 127° Southeast 496 571 45,000  Level Kansas City Center
Mon 03:20:24 AM 36.7206 -100.5894 127° Southeast 503 579 45,000  Level Kansas City Center
Mon 03:21:24 AM 36.6264 -100.4319 127° Southeast 508 585 45,000  Level Kansas City Center
Mon 03:22:24 AM 36.5461 -100.3011 127° Southeast 513 590 45,000  Level Kansas City Center
Mon 03:23:24 AM 36.4608 -100.1586 127° Southeast 512 589 45,000  Level Kansas City Center
Mon 03:24:25 AM 36.3758 -100.0203 127° Southeast 507 583 45,000  Level Kansas City Center
Mon 03:25:25 AM 36.2908 -99.8800 127° Southeast 508 585 45,000  Level Kansas City Center
Mon 03:26:25 AM 36.2053 -99.7403 127° Southeast 508 585 45,000  Level Kansas City Center
Mon 03:27:25 AM 36.1183 -99.6017 128° Southeast 510 587 45,000  Level Kansas City Center
Mon 03:28:25 AM 36.0333 -99.4631 127° Southeast 509 586 45,000  Level Kansas City Center
Mon 03:29:25 AM 35.9486 -99.3278 128° Southeast 506 582 45,000 -50 Level Kansas City Center
Mon 03:30:26 AM 35.8644 -99.1894 127° Southeast 505 581 44,900  Descending Kansas City Center
Mon 03:31:08 AM 35.7911 -99.0819 130° Southeast 511 588 45,000 59 Climbing Fort Worth Center
Mon 03:32:08 AM 35.7075 -98.9447 127° Southeast 511 588 45,000  Level Fort Worth Center
Mon 03:33:08 AM 35.6256 -98.8131 127° Southeast 506 582 45,000  Level Fort Worth Center
Mon 03:34:08 AM 35.5417 -98.6789 128° Southeast 494 568 45,000  Level Fort Worth Center
Mon 03:35:08 AM 35.4594 -98.5503 128° Southeast 489 563 45,000  Level Fort Worth Center
Mon 03:36:08 AM 35.3792 -98.4294 129° Southeast 478 550 45,000  Level Fort Worth Center
Mon 03:37:08 AM 35.2947 -98.2986 128° Southeast 478 550 45,000  Level Fort Worth Center
Mon 03:38:08 AM 35.2078 -98.1631 128° Southeast 489 563 45,000  Level Fort Worth Center
Mon 03:39:08 AM 35.1189 -98.0303 129° Southeast 495 570 45,000  Level Fort Worth Center
Mon 03:40:08 AM 35.0319 -97.8953 128° Southeast 500 575 45,000  Level Fort Worth Center
Mon 03:41:08 AM 34.9447 -97.7606 128° Southeast 500 575 45,000  Level Fort Worth Center
Mon 03:42:08 AM 34.8575 -97.6286 129° Southeast 500 575 45,000  Level Fort Worth Center
Mon 03:43:08 AM 34.7681 -97.4919 129° Southeast 500 575 45,000  Level Fort Worth Center
Mon 03:44:08 AM 34.6803 -97.3581 129° Southeast 500 575 45,000  Level Fort Worth Center
Mon 03:45:08 AM 34.5947 -97.2269 128° Southeast 500 575 45,000  Level Fort Worth Center
Mon 03:46:08 AM 34.5067 -97.0961 129° Southeast 500 575 45,000  Level Fort Worth Center
Mon 03:47:08 AM 34.4208 -96.9706 130° Southeast 495 570 45,000  Level Fort Worth Center
Mon 03:48:08 AM 34.3347 -96.8375 128° Southeast 495 570 45,000  Level Fort Worth Center
Mon 03:49:08 AM 34.2506 -96.7100 129° Southeast 495 570 45,000  Level Fort Worth Center
Mon 03:50:08 AM 34.1603 -96.5828 131° Southeast 495 570 45,000  Level Fort Worth Center
Mon 03:51:08 AM 34.0883 -96.4606 125° Southeast 495 570 45,000  Level Fort Worth Center
Mon 03:52:08 AM 33.9975 -96.3311 130° Southeast 495 570 45,000  Level Fort Worth Center
Mon 03:53:08 AM 33.9108 -96.1997 128° Southeast 501 577 45,000  Level Fort Worth Center
Mon 03:54:08 AM 33.8197 -96.0658 129° Southeast 507 583 45,000  Level Fort Worth Center
Mon 03:55:08 AM 33.7306 -95.9350 129° Southeast 513 590 45,000  Level Fort Worth Center
Mon 03:56:08 AM 33.6372 -95.8017 130° Southeast 518 596 45,000  Level Fort Worth Center
Mon 03:57:08 AM 33.5456 -95.6664 129° Southeast 518 596 45,000  Level Fort Worth Center
Mon 03:58:08 AM 33.4478 -95.5364 132° Southeast 523 602 45,000  Level Fort Worth Center
Mon 03:59:08 AM 33.3558 -95.4039 130° Southeast 523 602 45,000  Level Fort Worth Center
Mon 04:00:08 AM 33.2639 -95.2694 129° Southeast 523 602 45,000  Level Fort Worth Center
Mon 04:01:08 AM 33.1678 -95.1353 131° Southeast 523 602 45,000  Level Fort Worth Center
Mon 04:02:08 AM 33.0753 -95.0014 129° Southeast 523 602 45,000  Level Fort Worth Center
Mon 04:03:08 AM 32.9808 -94.8700 131° Southeast 523 602 45,000  Level Fort Worth Center
Mon 04:04:08 AM 32.8864 -94.7342 130° Southeast 523 602 45,000  Level Fort Worth Center
Mon 04:05:08 AM 32.7936 -94.6011 130° Southeast 523 602 45,000  Level Fort Worth Center
Mon 04:06:08 AM 32.7008 -94.4733 131° Southeast 523 602 45,000  Level Fort Worth Center
Mon 04:07:08 AM 32.6100 -94.3406 129° Southeast 523 602 45,000  Level Fort Worth Center
Mon 04:08:08 AM 32.5211 -94.2081 128° Southeast 518 596 45,000  Level Fort Worth Center
Mon 04:09:08 AM 32.4300 -94.0686 128° Southeast 518 596 45,000  Level Fort Worth Center
Mon 04:10:08 AM 32.3408 -93.9367 129° Southeast 523 602 45,000  Level Fort Worth Center
Mon 04:11:08 AM 32.2494 -93.8025 129° Southeast 523 602 45,000  Level Fort Worth Center
Mon 04:12:08 AM 32.1514 -93.6617 129° Southeast 516 594 45,000  Level Fort Worth Center
Mon 04:14:02 AM 31.9867 -93.4158 128° Southeast 524 603 45,000  Level Houston Center
Mon 04:15:02 AM 31.8939 -93.2808 129° Southeast 528 608 45,000  Level Houston Center
Mon 04:16:02 AM 31.8022 -93.1481 129° Southeast 525 604 45,000 -50 Level Houston Center
Mon 04:17:03 AM 31.7142 -93.0250 130° Southeast 524 603 44,900 -50 Descending Houston Center
Mon 04:18:03 AM 31.6222 -92.8933 129° Southeast 522 601 44,900  Level Houston Center
Mon 04:19:03 AM 31.5314 -92.7611 129° Southeast 521 600 44,900 -750 Level Houston Center
Mon 04:20:03 AM 31.4400 -92.6306 129° Southeast 518 596 43,400 -1,900 Descending Houston Center
Mon 04:21:03 AM 31.3483 -92.4997 129° Southeast 518 596 41,100 -2,300 Descending Houston Center
Mon 04:22:03 AM 31.2592 -92.3733 130° Southeast 514 592 38,800 -2,281 Descending Houston Center
Mon 04:23:04 AM 31.1703 -92.2486 130° Southeast 504 580 36,500 -2,331 Descending Houston Center
Mon 04:24:04 AM 31.0786 -92.1194 130° Southeast 511 588 34,100 -2,500 Descending Houston Center
Mon 04:25:04 AM 30.9753 -91.9742 130° Southeast 515 593 31,500 -2,500 Descending Houston Center
Mon 04:26:04 AM 30.8828 -91.8453 130° Southeast 518 596 29,100 -2,400 Descending Houston Center
Mon 04:27:04 AM 30.7978 -91.7114 126° Southeast 516 594 26,700 -2,450 Descending Houston Center
Mon 04:28:04 AM 30.7206 -91.5850 125° Southeast 486 559 24,200 -2,529 Descending Houston Center
Mon 04:29:05 AM 30.6458 -91.4636 126° Southeast 466 536 21,600 -2,430 Descending Houston Center
Mon 04:30:05 AM 30.5808 -91.3606 126° Southeast 445 512 19,300 -2,400 Descending Houston Center
Mon 04:31:05 AM 30.5119 -91.2475 125° Southeast 431 496 16,800 -2,300 Descending Houston Center
Mon 04:32:05 AM 30.4442 -91.1425 127° Southeast 408 470 14,700 -2,050 Descending Houston Center
Mon 04:33:05 AM 30.3806 -91.0406 126° Southeast 395 455 12,700 -2,182 Descending Houston Center
Mon 04:33:33 AM 30.3453 -90.9858 127° Southeast 385 443 11,500 -1,800 Descending Houston Center
Mon 04:34:05 AM 30.3186 -90.9439 126° Southeast 377 434 10,900 -448 Descending Houston Center
Mon 04:34:40 AM 30.2800 -90.8819 126° Southeast 333 383 11,000  Climbing Houston Center
Mon 04:35:06 AM 30.2653 -90.8581 126° Southeast 336 387 10,900 -98 Descending Houston Center
Mon 04:35:41 AM 30.2319 -90.8042 126° Southeast 279 321 10,900 -500 Level Houston Center
Mon 04:36:06 AM 30.2192 -90.7853 128° Southeast 286 329 10,400 -1,700 Descending Houston Center
Mon 04:36:41 AM 30.1861 -90.7336 126° Southeast 269 310 9,200 -1,700 Descending Houston Center
Mon 04:37:06 AM 30.1733 -90.7150 128° Southeast 276 318 8,700 -1,770 Descending Houston Center
Mon 04:37:42 AM 30.1425 -90.6631 124° Southeast 269 310 7,400 -1,800 Descending Houston Center
Mon 04:38:06 AM 30.1311 -90.6453 127° Southeast 269 310 6,900 -1,700 Descending Houston Center
Mon 04:38:42 AM 30.0989 -90.5950 127° Southeast 266 306 5,700 -1,700 Descending Houston Center
Mon 04:39:06 AM 30.0881 -90.5786 127° Southeast 264 304 5,200 -1,377 Descending Houston Center
Mon 04:39:43 AM 30.0617 -90.5364 126° Southeast 219 252 4,300 -1,377 Descending Houston Center
Mon 04:40:07 AM 30.0519 -90.5197 124° Southeast 245 282 3,800 -1,279 Descending Houston Center
Mon 04:40:44 AM 30.0411 -90.4722 105° East 211 243 3,000 -1,200 Descending Houston Center
Mon 04:41:07 AM 30.0397 -90.4561 96° East 221 254 2,600 -1,000 Descending Houston Center
Mon 04:41:44 AM 30.0267 -90.4081 107° East 184 212 2,000 -800 Descending Houston Center
Mon 04:42:07 AM 30.0253 -90.3983 99° East 204 235 1,800 -689 Descending Houston Center
Mon 04:42:45 AM 30.0150 -90.3653 110° East 127 146 1,300 -700 Descending Houston Center
Mon 04:43:07 AM 30.0147 -90.3578 92° East 165 190 1,100 -600 Descending Houston Center
Mon 04:43:45 AM 30.0075 -90.3247 104° East 130 150 700 -600 Descending Houston Center
Mon 04:44:07 AM 30.0061 -90.3189 105° East 140 161 500 -590 Descending Houston Center
Mon 04:44:46 AM 29.9981 -90.2889 107° East 110 127 100 -100 Descending Houston Center
Mon 04:45:07 AM 29.9969 -90.2814 100° East 137 158 400 857 Climbing Houston Center
Mon 04:47:00 AM 29.9934 -90.2580 125° Southeast  Level Estimated
Mon 04:54:00 AM 29.9934 -90.2580 125° Southeast  Level Estimated

Login

Don't have an account? Register now (free) for customized features, flight alerts, and more!